sensor_id;sensor_type;location;lat;lon;timestamp;P1;durP1;ratioP1;P2;durP2;ratioP2
12519;SDS011;6325;49.540;8.364;2024-02-23T00:02:20;4.53;;;2.78;;
12519;SDS011;6325;49.540;8.364;2024-02-23T00:04:47;4.18;;;2.55;;
12519;SDS011;6325;49.540;8.364;2024-02-23T00:07:14;3.88;;;2.22;;
12519;SDS011;6325;49.540;8.364;2024-02-23T00:09:41;5.00;;;3.03;;
12519;SDS011;6325;49.540;8.364;2024-02-23T00:12:07;1.73;;;1.00;;
12519;SDS011;6325;49.540;8.364;2024-02-23T00:14:36;1.40;;;0.93;;
12519;SDS011;6325;49.540;8.364;2024-02-23T00:17:03;3.40;;;1.90;;
12519;SDS011;6325;49.540;8.364;2024-02-23T00:19:30;4.30;;;2.78;;
12519;SDS011;6325;49.540;8.364;2024-02-23T00:21:57;3.60;;;2.00;;
12519;SDS011;6325;49.540;8.364;2024-02-23T00:24:24;6.18;;;3.30;;
12519;SDS011;6325;49.540;8.364;2024-02-23T00:26:51;6.57;;;3.10;;
12519;SDS011;6325;49.540;8.364;2024-02-23T00:29:17;4.03;;;2.42;;
12519;SDS011;6325;49.540;8.364;2024-02-23T00:31:46;5.75;;;2.92;;
12519;SDS011;6325;49.540;8.364;2024-02-23T00:34:12;4.53;;;2.70;;
12519;SDS011;6325;49.540;8.364;2024-02-23T00:36:40;9.05;;;3.90;;
12519;SDS011;6325;49.540;8.364;2024-02-23T00:39:09;5.40;;;3.05;;
12519;SDS011;6325;49.540;8.364;2024-02-23T00:41:36;4.30;;;2.40;;
12519;SDS011;6325;49.540;8.364;2024-02-23T00:44:03;7.97;;;4.00;;
12519;SDS011;6325;49.540;8.364;2024-02-23T00:46:30;8.07;;;4.18;;
12519;SDS011;6325;49.540;8.364;2024-02-23T00:48:58;9.30;;;4.30;;
12519;SDS011;6325;49.540;8.364;2024-02-23T00:51:25;8.10;;;3.88;;
12519;SDS011;6325;49.540;8.364;2024-02-23T00:53:52;7.30;;;3.57;;
12519;SDS011;6325;49.540;8.364;2024-02-23T00:56:18;6.15;;;3.40;;
12519;SDS011;6325;49.540;8.364;2024-02-23T00:58:45;8.07;;;4.22;;
12519;SDS011;6325;49.540;8.364;2024-02-23T01:01:12;3.80;;;1.92;;
12519;SDS011;6325;49.540;8.364;2024-02-23T01:03:39;4.40;;;2.25;;
12519;SDS011;6325;49.540;8.364;2024-02-23T01:06:07;5.97;;;3.08;;
12519;SDS011;6325;49.540;8.364;2024-02-23T01:08:34;7.97;;;3.50;;
12519;SDS011;6325;49.540;8.364;2024-02-23T01:11:01;7.90;;;3.45;;
12519;SDS011;6325;49.540;8.364;2024-02-23T01:13:28;7.57;;;3.20;;
12519;SDS011;6325;49.540;8.364;2024-02-23T01:15:55;9.63;;;4.15;;
12519;SDS011;6325;49.540;8.364;2024-02-23T01:18:21;8.27;;;3.60;;
12519;SDS011;6325;49.540;8.364;2024-02-23T01:20:48;9.07;;;3.70;;
12519;SDS011;6325;49.540;8.364;2024-02-23T01:23:16;9.68;;;4.15;;
12519;SDS011;6325;49.540;8.364;2024-02-23T01:25:43;4.65;;;1.95;;
12519;SDS011;6325;49.540;8.364;2024-02-23T01:28:10;3.28;;;1.67;;
12519;SDS011;6325;49.540;8.364;2024-02-23T01:30:37;1.48;;;0.90;;
12519;SDS011;6325;49.540;8.364;2024-02-23T01:33:04;1.45;;;1.02;;
12519;SDS011;6325;49.540;8.364;2024-02-23T01:35:31;2.40;;;1.63;;
12519;SDS011;6325;49.540;8.364;2024-02-23T01:37:57;1.60;;;0.90;;
12519;SDS011;6325;49.540;8.364;2024-02-23T01:40:26;2.20;;;1.10;;
12519;SDS011;6325;49.540;8.364;2024-02-23T01:43:00;6.53;;;2.85;;
12519;SDS011;6325;49.540;8.364;2024-02-23T01:45:27;7.57;;;3.80;;
12519;SDS011;6325;49.540;8.364;2024-02-23T01:47:55;5.32;;;2.47;;
12519;SDS011;6325;49.540;8.364;2024-02-23T01:50:22;5.90;;;2.72;;
12519;SDS011;6325;49.540;8.364;2024-02-23T01:52:49;7.13;;;3.30;;
12519;SDS011;6325;49.540;8.364;2024-02-23T01:55:17;8.50;;;3.63;;
12519;SDS011;6325;49.540;8.364;2024-02-23T01:57:46;6.22;;;3.05;;
12519;SDS011;6325;49.540;8.364;2024-02-23T02:00:15;5.43;;;2.75;;
12519;SDS011;6325;49.540;8.364;2024-02-23T02:02:43;8.35;;;3.80;;
12519;SDS011;6325;49.540;8.364;2024-02-23T02:05:10;5.82;;;3.10;;
12519;SDS011;6325;49.540;8.364;2024-02-23T02:07:37;6.57;;;2.72;;
12519;SDS011;6325;49.540;8.364;2024-02-23T02:10:04;5.35;;;2.33;;
12519;SDS011;6325;49.540;8.364;2024-02-23T02:12:34;5.15;;;2.70;;
12519;SDS011;6325;49.540;8.364;2024-02-23T02:15:02;7.97;;;3.70;;
12519;SDS011;6325;49.540;8.364;2024-02-23T02:17:30;4.47;;;2.13;;
12519;SDS011;6325;49.540;8.364;2024-02-23T02:19:57;7.35;;;3.03;;
12519;SDS011;6325;49.540;8.364;2024-02-23T02:22:25;8.20;;;3.60;;
12519;SDS011;6325;49.540;8.364;2024-02-23T02:24:52;9.13;;;4.20;;
12519;SDS011;6325;49.540;8.364;2024-02-23T02:27:18;6.13;;;2.55;;
12519;SDS011;6325;49.540;8.364;2024-02-23T02:29:45;8.13;;;3.30;;
12519;SDS011;6325;49.540;8.364;2024-02-23T02:32:13;6.00;;;2.88;;
12519;SDS011;6325;49.540;8.364;2024-02-23T02:34:40;1.60;;;1.20;;
12519;SDS011;6325;49.540;8.364;2024-02-23T02:37:07;4.07;;;1.85;;
12519;SDS011;6325;49.540;8.364;2024-02-23T02:39:33;1.70;;;0.80;;
12519;SDS011;6325;49.540;8.364;2024-02-23T02:42:00;0.87;;;0.57;;
12519;SDS011;6325;49.540;8.364;2024-02-23T02:44:27;0.80;;;0.50;;
12519;SDS011;6325;49.540;8.364;2024-02-23T02:46:55;0.30;;;0.30;;
12519;SDS011;6325;49.540;8.364;2024-02-23T02:49:23;1.52;;;0.50;;
12519;SDS011;6325;49.540;8.364;2024-02-23T02:51:50;0.98;;;0.40;;
12519;SDS011;6325;49.540;8.364;2024-02-23T02:54:17;0.47;;;0.40;;
12519;SDS011;6325;49.540;8.364;2024-02-23T02:56:44;0.87;;;0.33;;
12519;SDS011;6325;49.540;8.364;2024-02-23T02:59:11;0.50;;;0.40;;
12519;SDS011;6325;49.540;8.364;2024-02-23T03:01:38;0.70;;;0.30;;
12519;SDS011;6325;49.540;8.364;2024-02-23T03:04:05;0.63;;;0.60;;
12519;SDS011;6325;49.540;8.364;2024-02-23T03:06:35;1.27;;;0.50;;
12519;SDS011;6325;49.540;8.364;2024-02-23T03:09:02;0.85;;;0.60;;
12519;SDS011;6325;49.540;8.364;2024-02-23T03:11:30;2.67;;;0.68;;
12519;SDS011;6325;49.540;8.364;2024-02-23T03:13:56;0.40;;;0.40;;
12519;SDS011;6325;49.540;8.364;2024-02-23T03:16:23;0.83;;;0.40;;
12519;SDS011;6325;49.540;8.364;2024-02-23T03:18:51;0.82;;;0.50;;
12519;SDS011;6325;49.540;8.364;2024-02-23T03:21:19;0.85;;;0.65;;
12519;SDS011;6325;49.540;8.364;2024-02-23T03:23:47;0.87;;;0.50;;
12519;SDS011;6325;49.540;8.364;2024-02-23T03:26:14;1.15;;;0.50;;
12519;SDS011;6325;49.540;8.364;2024-02-23T03:28:42;1.67;;;0.60;;
12519;SDS011;6325;49.540;8.364;2024-02-23T03:31:09;0.60;;;0.60;;
12519;SDS011;6325;49.540;8.364;2024-02-23T03:33:35;1.60;;;0.80;;
12519;SDS011;6325;49.540;8.364;2024-02-23T03:36:04;0.50;;;0.45;;
12519;SDS011;6325;49.540;8.364;2024-02-23T03:38:32;0.50;;;0.45;;
12519;SDS011;6325;49.540;8.364;2024-02-23T03:41:01;3.08;;;1.27;;
12519;SDS011;6325;49.540;8.364;2024-02-23T03:43:28;0.70;;;0.60;;
12519;SDS011;6325;49.540;8.364;2024-02-23T03:45:54;0.60;;;0.50;;
12519;SDS011;6325;49.540;8.364;2024-02-23T03:48:21;0.63;;;0.40;;
12519;SDS011;6325;49.540;8.364;2024-02-23T03:50:48;1.00;;;0.60;;
12519;SDS011;6325;49.540;8.364;2024-02-23T03:53:14;1.00;;;0.50;;
12519;SDS011;6325;49.540;8.364;2024-02-23T03:55:41;1.42;;;0.60;;
12519;SDS011;6325;49.540;8.364;2024-02-23T03:58:09;1.65;;;0.55;;
12519;SDS011;6325;49.540;8.364;2024-02-23T04:00:36;1.45;;;0.50;;
12519;SDS011;6325;49.540;8.364;2024-02-23T04:03:03;0.55;;;0.38;;
12519;SDS011;6325;49.540;8.364;2024-02-23T04:05:33;0.70;;;0.50;;
12519;SDS011;6325;49.540;8.364;2024-02-23T04:08:00;1.05;;;0.50;;
12519;SDS011;6325;49.540;8.364;2024-02-23T04:10:26;1.52;;;0.50;;
12519;SDS011;6325;49.540;8.364;2024-02-23T04:12:53;1.30;;;0.60;;
12519;SDS011;6325;49.540;8.364;2024-02-23T04:15:21;0.87;;;0.50;;
12519;SDS011;6325;49.540;8.364;2024-02-23T04:17:48;1.00;;;0.50;;
12519;SDS011;6325;49.540;8.364;2024-02-23T04:20:15;0.77;;;0.60;;
12519;SDS011;6325;49.540;8.364;2024-02-23T04:22:42;0.98;;;0.50;;
12519;SDS011;6325;49.540;8.364;2024-02-23T04:25:08;1.48;;;0.70;;
12519;SDS011;6325;49.540;8.364;2024-02-23T04:27:35;0.40;;;0.40;;
12519;SDS011;6325;49.540;8.364;2024-02-23T04:30:02;0.50;;;0.50;;
12519;SDS011;6325;49.540;8.364;2024-02-23T04:32:31;0.40;;;0.32;;
12519;SDS011;6325;49.540;8.364;2024-02-23T04:34:58;0.67;;;0.50;;
12519;SDS011;6325;49.540;8.364;2024-02-23T04:37:24;1.30;;;0.50;;
12519;SDS011;6325;49.540;8.364;2024-02-23T04:39:51;1.40;;;0.60;;
12519;SDS011;6325;49.540;8.364;2024-02-23T04:42:18;1.35;;;0.80;;
12519;SDS011;6325;49.540;8.364;2024-02-23T04:44:44;0.70;;;0.57;;
12519;SDS011;6325;49.540;8.364;2024-02-23T04:47:12;1.30;;;0.70;;
12519;SDS011;6325;49.540;8.364;2024-02-23T04:49:40;0.95;;;0.60;;
12519;SDS011;6325;49.540;8.364;2024-02-23T04:52:07;1.20;;;0.60;;
12519;SDS011;6325;49.540;8.364;2024-02-23T04:54:38;1.40;;;0.73;;
12519;SDS011;6325;49.540;8.364;2024-02-23T04:57:05;0.90;;;0.65;;
12519;SDS011;6325;49.540;8.364;2024-02-23T04:59:32;1.10;;;0.63;;
12519;SDS011;6325;49.540;8.364;2024-02-23T05:01:59;1.10;;;0.70;;
12519;SDS011;6325;49.540;8.364;2024-02-23T05:04:25;0.90;;;0.60;;
12519;SDS011;6325;49.540;8.364;2024-02-23T05:06:54;0.70;;;0.60;;
12519;SDS011;6325;49.540;8.364;2024-02-23T05:09:21;0.75;;;0.60;;
12519;SDS011;6325;49.540;8.364;2024-02-23T05:11:48;3.13;;;1.00;;
12519;SDS011;6325;49.540;8.364;2024-02-23T05:14:15;1.80;;;0.80;;
12519;SDS011;6325;49.540;8.364;2024-02-23T05:16:41;1.40;;;0.70;;
12519;SDS011;6325;49.540;8.364;2024-02-23T05:19:08;0.90;;;0.50;;
12519;SDS011;6325;49.540;8.364;2024-02-23T05:21:35;1.15;;;0.60;;
12519;SDS011;6325;49.540;8.364;2024-02-23T05:24:03;0.90;;;0.70;;
12519;SDS011;6325;49.540;8.364;2024-02-23T05:26:31;0.98;;;0.70;;
12519;SDS011;6325;49.540;8.364;2024-02-23T05:28:58;0.98;;;0.60;;
12519;SDS011;6325;49.540;8.364;2024-02-23T05:31:43;1.15;;;0.68;;
12519;SDS011;6325;49.540;8.364;2024-02-23T05:34:11;1.27;;;0.70;;
12519;SDS011;6325;49.540;8.364;2024-02-23T05:36:38;1.10;;;0.70;;
12519;SDS011;6325;49.540;8.364;2024-02-23T05:39:06;1.60;;;0.80;;
12519;SDS011;6325;49.540;8.364;2024-02-23T05:41:34;0.50;;;0.50;;
12519;SDS011;6325;49.540;8.364;2024-02-23T05:44:01;1.50;;;0.67;;
12519;SDS011;6325;49.540;8.364;2024-02-23T05:46:30;1.98;;;0.85;;
12519;SDS011;6325;49.540;8.364;2024-02-23T05:48:57;1.02;;;0.70;;
12519;SDS011;6325;49.540;8.364;2024-02-23T05:51:24;0.80;;;0.70;;
12519;SDS011;6325;49.540;8.364;2024-02-23T05:53:53;1.05;;;0.77;;
12519;SDS011;6325;49.540;8.364;2024-02-23T05:56:21;0.83;;;0.80;;
12519;SDS011;6325;49.540;8.364;2024-02-23T05:58:49;1.08;;;0.70;;
12519;SDS011;6325;49.540;8.364;2024-02-23T06:01:15;1.58;;;0.65;;
12519;SDS011;6325;49.540;8.364;2024-02-23T06:03:41;0.60;;;0.60;;
12519;SDS011;6325;49.540;8.364;2024-02-23T06:06:08;2.05;;;0.85;;
12519;SDS011;6325;49.540;8.364;2024-02-23T06:08:35;1.50;;;0.70;;
12519;SDS011;6325;49.540;8.364;2024-02-23T06:11:02;0.70;;;0.60;;
12519;SDS011;6325;49.540;8.364;2024-02-23T06:13:30;1.63;;;0.80;;
12519;SDS011;6325;49.540;8.364;2024-02-23T06:15:58;0.75;;;0.65;;
12519;SDS011;6325;49.540;8.364;2024-02-23T06:18:25;1.35;;;0.70;;
12519;SDS011;6325;49.540;8.364;2024-02-23T06:20:51;1.50;;;0.80;;
12519;SDS011;6325;49.540;8.364;2024-02-23T06:23:18;1.58;;;0.80;;
12519;SDS011;6325;49.540;8.364;2024-02-23T06:25:47;1.60;;;0.90;;
12519;SDS011;6325;49.540;8.364;2024-02-23T06:28:13;1.13;;;0.80;;
12519;SDS011;6325;49.540;8.364;2024-02-23T06:30:41;1.08;;;0.70;;
12519;SDS011;6325;49.540;8.364;2024-02-23T06:33:08;1.88;;;0.80;;
12519;SDS011;6325;49.540;8.364;2024-02-23T06:35:35;0.93;;;0.80;;
12519;SDS011;6325;49.540;8.364;2024-02-23T06:38:02;0.73;;;0.70;;
12519;SDS011;6325;49.540;8.364;2024-02-23T06:40:30;1.10;;;0.70;;
12519;SDS011;6325;49.540;8.364;2024-02-23T06:42:57;1.05;;;0.80;;
12519;SDS011;6325;49.540;8.364;2024-02-23T06:45:25;0.88;;;0.70;;
12519;SDS011;6325;49.540;8.364;2024-02-23T06:47:53;1.17;;;1.02;;
12519;SDS011;6325;49.540;8.364;2024-02-23T06:50:19;0.90;;;0.80;;
12519;SDS011;6325;49.540;8.364;2024-02-23T06:52:47;2.63;;;1.17;;
12519;SDS011;6325;49.540;8.364;2024-02-23T06:55:14;1.27;;;0.80;;
12519;SDS011;6325;49.540;8.364;2024-02-23T06:57:42;1.23;;;0.93;;
12519;SDS011;6325;49.540;8.364;2024-02-23T07:00:09;1.40;;;0.75;;
12519;SDS011;6325;49.540;8.364;2024-02-23T07:02:37;1.60;;;0.75;;
12519;SDS011;6325;49.540;8.364;2024-02-23T07:05:05;1.20;;;0.90;;
12519;SDS011;6325;49.540;8.364;2024-02-23T07:07:32;2.28;;;1.30;;
12519;SDS011;6325;49.540;8.364;2024-02-23T07:10:00;1.40;;;0.80;;
12519;SDS011;6325;49.540;8.364;2024-02-23T07:12:27;1.67;;;1.00;;
12519;SDS011;6325;49.540;8.364;2024-02-23T07:14:54;1.05;;;0.70;;
12519;SDS011;6325;49.540;8.364;2024-02-23T07:17:21;1.40;;;0.95;;
12519;SDS011;6325;49.540;8.364;2024-02-23T07:19:48;0.82;;;0.70;;
12519;SDS011;6325;49.540;8.364;2024-02-23T07:22:17;2.15;;;0.77;;
12519;SDS011;6325;49.540;8.364;2024-02-23T07:24:45;1.10;;;0.80;;
12519;SDS011;6325;49.540;8.364;2024-02-23T07:27:12;1.73;;;0.85;;
12519;SDS011;6325;49.540;8.364;2024-02-23T07:29:39;1.52;;;0.70;;
12519;SDS011;6325;49.540;8.364;2024-02-23T07:32:06;0.80;;;0.70;;
12519;SDS011;6325;49.540;8.364;2024-02-23T07:34:33;1.40;;;1.00;;
12519;SDS011;6325;49.540;8.364;2024-02-23T07:36:59;2.10;;;0.70;;
12519;SDS011;6325;49.540;8.364;2024-02-23T07:39:29;1.67;;;0.90;;
12519;SDS011;6325;49.540;8.364;2024-02-23T07:41:55;2.72;;;1.80;;
12519;SDS011;6325;49.540;8.364;2024-02-23T07:44:22;2.40;;;1.30;;
12519;SDS011;6325;49.540;8.364;2024-02-23T07:46:50;3.45;;;2.40;;
12519;SDS011;6325;49.540;8.364;2024-02-23T07:49:17;3.08;;;1.80;;
12519;SDS011;6325;49.540;8.364;2024-02-23T07:51:44;1.50;;;0.90;;
12519;SDS011;6325;49.540;8.364;2024-02-23T07:54:11;1.67;;;0.90;;
12519;SDS011;6325;49.540;8.364;2024-02-23T07:56:39;1.30;;;0.70;;
12519;SDS011;6325;49.540;8.364;2024-02-23T07:59:06;1.77;;;0.80;;
12519;SDS011;6325;49.540;8.364;2024-02-23T08:01:32;1.80;;;0.80;;
12519;SDS011;6325;49.540;8.364;2024-02-23T08:03:59;1.50;;;0.70;;
12519;SDS011;6325;49.540;8.364;2024-02-23T08:06:26;1.20;;;0.60;;
12519;SDS011;6325;49.540;8.364;2024-02-23T08:08:52;1.40;;;0.70;;
12519;SDS011;6325;49.540;8.364;2024-02-23T08:11:20;1.13;;;0.70;;
12519;SDS011;6325;49.540;8.364;2024-02-23T08:13:48;1.25;;;0.80;;
12519;SDS011;6325;49.540;8.364;2024-02-23T08:16:15;2.22;;;0.80;;
12519;SDS011;6325;49.540;8.364;2024-02-23T08:18:42;1.48;;;0.88;;
12519;SDS011;6325;49.540;8.364;2024-02-23T08:21:09;2.00;;;1.00;;
12519;SDS011;6325;49.540;8.364;2024-02-23T08:23:36;2.25;;;0.90;;
12519;SDS011;6325;49.540;8.364;2024-02-23T08:26:03;1.50;;;0.80;;
12519;SDS011;6325;49.540;8.364;2024-02-23T08:28:30;2.10;;;0.90;;
12519;SDS011;6325;49.540;8.364;2024-02-23T08:30:58;1.30;;;0.70;;
12519;SDS011;6325;49.540;8.364;2024-02-23T08:33:25;1.80;;;1.00;;
12519;SDS011;6325;49.540;8.364;2024-02-23T08:35:51;2.35;;;1.05;;
12519;SDS011;6325;49.540;8.364;2024-02-23T08:38:18;1.48;;;0.90;;
12519;SDS011;6325;49.540;8.364;2024-02-23T08:40:45;1.67;;;0.80;;
12519;SDS011;6325;49.540;8.364;2024-02-23T08:43:13;2.22;;;0.75;;
12519;SDS011;6325;49.540;8.364;2024-02-23T08:45:39;2.30;;;0.73;;
12519;SDS011;6325;49.540;8.364;2024-02-23T08:48:08;1.35;;;1.00;;
12519;SDS011;6325;49.540;8.364;2024-02-23T08:50:34;1.20;;;0.80;;
12519;SDS011;6325;49.540;8.364;2024-02-23T08:53:03;1.50;;;0.93;;
12519;SDS011;6325;49.540;8.364;2024-02-23T08:55:30;1.70;;;1.00;;
12519;SDS011;6325;49.540;8.364;2024-02-23T08:57:58;1.40;;;0.90;;
12519;SDS011;6325;49.540;8.364;2024-02-23T09:00:25;1.27;;;0.83;;
12519;SDS011;6325;49.540;8.364;2024-02-23T09:02:51;1.35;;;0.80;;
12519;SDS011;6325;49.540;8.364;2024-02-23T09:05:19;1.33;;;0.80;;
12519;SDS011;6325;49.540;8.364;2024-02-23T09:07:46;1.00;;;0.90;;
12519;SDS011;6325;49.540;8.364;2024-02-23T09:10:13;1.67;;;1.00;;
12519;SDS011;6325;49.540;8.364;2024-02-23T09:12:40;1.75;;;1.00;;
12519;SDS011;6325;49.540;8.364;2024-02-23T09:15:08;1.23;;;0.80;;
12519;SDS011;6325;49.540;8.364;2024-02-23T09:17:35;1.17;;;0.90;;
12519;SDS011;6325;49.540;8.364;2024-02-23T09:20:01;2.22;;;0.90;;
12519;SDS011;6325;49.540;8.364;2024-02-23T09:22:30;1.55;;;0.80;;
12519;SDS011;6325;49.540;8.364;2024-02-23T09:24:56;1.45;;;0.82;;
12519;SDS011;6325;49.540;8.364;2024-02-23T09:27:23;1.10;;;0.80;;
12519;SDS011;6325;49.540;8.364;2024-02-23T09:29:50;0.80;;;0.80;;
12519;SDS011;6325;49.540;8.364;2024-02-23T09:32:17;0.80;;;0.80;;
12519;SDS011;6325;49.540;8.364;2024-02-23T09:34:49;1.20;;;0.70;;
12519;SDS011;6325;49.540;8.364;2024-02-23T09:37:16;0.93;;;0.90;;
12519;SDS011;6325;49.540;8.364;2024-02-23T09:39:44;1.52;;;0.90;;
12519;SDS011;6325;49.540;8.364;2024-02-23T09:42:11;1.63;;;0.82;;
12519;SDS011;6325;49.540;8.364;2024-02-23T09:44:38;1.52;;;0.80;;
12519;SDS011;6325;49.540;8.364;2024-02-23T09:47:07;1.45;;;0.90;;
12519;SDS011;6325;49.540;8.364;2024-02-23T09:49:37;1.50;;;0.93;;
12519;SDS011;6325;49.540;8.364;2024-02-23T09:52:05;0.90;;;0.80;;
12519;SDS011;6325;49.540;8.364;2024-02-23T09:54:34;1.13;;;0.88;;
12519;SDS011;6325;49.540;8.364;2024-02-23T09:57:02;1.92;;;0.90;;
12519;SDS011;6325;49.540;8.364;2024-02-23T09:59:33;1.60;;;0.90;;
12519;SDS011;6325;49.540;8.364;2024-02-23T10:02:00;1.60;;;0.90;;
12519;SDS011;6325;49.540;8.364;2024-02-23T10:04:28;3.10;;;1.00;;
12519;SDS011;6325;49.540;8.364;2024-02-23T10:06:56;1.50;;;0.90;;
12519;SDS011;6325;49.540;8.364;2024-02-23T10:09:23;1.58;;;0.93;;
12519;SDS011;6325;49.540;8.364;2024-02-23T10:11:51;1.30;;;0.90;;
12519;SDS011;6325;49.540;8.364;2024-02-23T10:14:20;2.65;;;1.08;;
12519;SDS011;6325;49.540;8.364;2024-02-23T10:16:46;1.63;;;0.90;;
12519;SDS011;6325;49.540;8.364;2024-02-23T10:19:13;2.40;;;1.00;;
12519;SDS011;6325;49.540;8.364;2024-02-23T10:21:40;0.90;;;0.80;;
12519;SDS011;6325;49.540;8.364;2024-02-23T10:24:06;0.90;;;0.80;;
12519;SDS011;6325;49.540;8.364;2024-02-23T10:26:33;1.90;;;1.00;;
12519;SDS011;6325;49.540;8.364;2024-02-23T10:29:00;2.33;;;0.95;;
12519;SDS011;6325;49.540;8.364;2024-02-23T10:31:29;1.10;;;0.90;;
12519;SDS011;6325;49.540;8.364;2024-02-23T10:34:00;1.88;;;1.00;;
12519;SDS011;6325;49.540;8.364;2024-02-23T10:36:34;1.50;;;1.00;;
12519;SDS011;6325;49.540;8.364;2024-02-23T10:39:04;1.80;;;0.90;;
12519;SDS011;6325;49.540;8.364;2024-02-23T10:41:34;1.80;;;1.00;;
12519;SDS011;6325;49.540;8.364;2024-02-23T10:44:02;1.75;;;1.00;;
12519;SDS011;6325;49.540;8.364;2024-02-23T10:46:32;2.38;;;1.10;;
12519;SDS011;6325;49.540;8.364;2024-02-23T10:48:59;1.10;;;1.00;;
12519;SDS011;6325;49.540;8.364;2024-02-23T10:51:29;2.10;;;1.25;;
12519;SDS011;6325;49.540;8.364;2024-02-23T10:53:58;2.55;;;1.27;;
12519;SDS011;6325;49.540;8.364;2024-02-23T10:56:26;1.88;;;0.90;;
12519;SDS011;6325;49.540;8.364;2024-02-23T10:58:53;2.17;;;1.17;;
12519;SDS011;6325;49.540;8.364;2024-02-23T11:01:20;2.38;;;1.30;;
12519;SDS011;6325;49.540;8.364;2024-02-23T11:03:49;3.08;;;1.70;;
12519;SDS011;6325;49.540;8.364;2024-02-23T11:06:19;1.88;;;1.30;;
12519;SDS011;6325;49.540;8.364;2024-02-23T11:08:47;2.40;;;1.70;;
12519;SDS011;6325;49.540;8.364;2024-02-23T11:11:15;2.33;;;1.70;;
12519;SDS011;6325;49.540;8.364;2024-02-23T11:13:43;2.00;;;1.20;;
12519;SDS011;6325;49.540;8.364;2024-02-23T11:16:10;1.52;;;1.30;;
12519;SDS011;6325;49.540;8.364;2024-02-23T11:18:38;1.73;;;1.30;;
12519;SDS011;6325;49.540;8.364;2024-02-23T11:21:09;1.93;;;1.00;;
12519;SDS011;6325;49.540;8.364;2024-02-23T11:23:43;1.73;;;1.10;;
12519;SDS011;6325;49.540;8.364;2024-02-23T11:26:11;1.50;;;1.10;;
12519;SDS011;6325;49.540;8.364;2024-02-23T11:28:42;1.98;;;1.20;;
12519;SDS011;6325;49.540;8.364;2024-02-23T11:31:13;3.00;;;1.40;;
12519;SDS011;6325;49.540;8.364;2024-02-23T11:33:40;1.45;;;1.10;;
12519;SDS011;6325;49.540;8.364;2024-02-23T11:36:21;2.03;;;1.00;;
12519;SDS011;6325;49.540;8.364;2024-02-23T11:38:49;1.10;;;0.90;;
12519;SDS011;6325;49.540;8.364;2024-02-23T11:41:21;2.38;;;1.20;;
12519;SDS011;6325;49.540;8.364;2024-02-23T11:43:48;1.27;;;0.90;;
12519;SDS011;6325;49.540;8.364;2024-02-23T11:46:15;2.30;;;1.00;;
12519;SDS011;6325;49.540;8.364;2024-02-23T11:48:42;1.20;;;0.82;;
12519;SDS011;6325;49.540;8.364;2024-02-23T11:51:09;2.05;;;0.80;;
12519;SDS011;6325;49.540;8.364;2024-02-23T11:53:37;1.17;;;0.70;;
12519;SDS011;6325;49.540;8.364;2024-02-23T11:56:04;1.85;;;1.00;;
12519;SDS011;6325;49.540;8.364;2024-02-23T11:58:32;1.67;;;0.90;;
12519;SDS011;6325;49.540;8.364;2024-02-23T12:00:59;1.10;;;0.93;;
12519;SDS011;6325;49.540;8.364;2024-02-23T12:03:27;1.55;;;0.80;;
12519;SDS011;6325;49.540;8.364;2024-02-23T12:05:54;1.50;;;0.95;;
12519;SDS011;6325;49.540;8.364;2024-02-23T12:08:23;1.20;;;0.80;;
12519;SDS011;6325;49.540;8.364;2024-02-23T12:10:53;1.20;;;0.80;;
12519;SDS011;6325;49.540;8.364;2024-02-23T12:13:21;1.90;;;0.90;;
12519;SDS011;6325;49.540;8.364;2024-02-23T12:15:48;2.00;;;0.90;;
12519;SDS011;6325;49.540;8.364;2024-02-23T12:18:18;2.03;;;1.02;;
12519;SDS011;6325;49.540;8.364;2024-02-23T12:20:48;1.10;;;0.95;;
12519;SDS011;6325;49.540;8.364;2024-02-23T12:23:15;1.07;;;0.87;;
12519;SDS011;6325;49.540;8.364;2024-02-23T12:25:52;1.58;;;1.00;;
12519;SDS011;6325;49.540;8.364;2024-02-23T12:28:20;2.30;;;1.20;;
12519;SDS011;6325;49.540;8.364;2024-02-23T12:30:46;2.55;;;1.10;;
12519;SDS011;6325;49.540;8.364;2024-02-23T12:33:26;1.13;;;0.77;;
12519;SDS011;6325;49.540;8.364;2024-02-23T12:35:53;1.60;;;0.77;;
12519;SDS011;6325;49.540;8.364;2024-02-23T12:38:21;1.48;;;0.90;;
12519;SDS011;6325;49.540;8.364;2024-02-23T12:40:47;1.55;;;0.90;;
12519;SDS011;6325;49.540;8.364;2024-02-23T12:43:16;1.93;;;0.80;;
12519;SDS011;6325;49.540;8.364;2024-02-23T12:45:43;1.30;;;0.82;;
12519;SDS011;6325;49.540;8.364;2024-02-23T12:48:10;1.67;;;1.05;;
12519;SDS011;6325;49.540;8.364;2024-02-23T12:50:37;1.80;;;1.48;;
12519;SDS011;6325;49.540;8.364;2024-02-23T12:53:04;1.95;;;1.17;;
12519;SDS011;6325;49.540;8.364;2024-02-23T12:55:31;1.77;;;1.10;;
12519;SDS011;6325;49.540;8.364;2024-02-23T12:57:57;2.10;;;1.00;;
12519;SDS011;6325;49.540;8.364;2024-02-23T13:00:26;1.05;;;0.82;;
12519;SDS011;6325;49.540;8.364;2024-02-23T13:02:52;1.45;;;0.95;;
12519;SDS011;6325;49.540;8.364;2024-02-23T13:05:19;1.35;;;0.82;;
12519;SDS011;6325;49.540;8.364;2024-02-23T13:07:46;1.20;;;0.87;;
12519;SDS011;6325;49.540;8.364;2024-02-23T13:10:13;1.85;;;0.90;;
12519;SDS011;6325;49.540;8.364;2024-02-23T13:12:43;1.20;;;0.88;;
12519;SDS011;6325;49.540;8.364;2024-02-23T13:15:10;1.80;;;1.00;;
12519;SDS011;6325;49.540;8.364;2024-02-23T13:17:38;1.77;;;0.97;;
12519;SDS011;6325;49.540;8.364;2024-02-23T13:20:05;1.67;;;1.10;;
12519;SDS011;6325;49.540;8.364;2024-02-23T13:22:33;1.75;;;1.05;;
12519;SDS011;6325;49.540;8.364;2024-02-23T13:24:59;1.92;;;1.20;;
12519;SDS011;6325;49.540;8.364;2024-02-23T13:27:26;2.30;;;0.90;;
12519;SDS011;6325;49.540;8.364;2024-02-23T13:29:54;1.23;;;0.90;;
12519;SDS011;6325;49.540;8.364;2024-02-23T13:32:22;2.17;;;0.93;;
12519;SDS011;6325;49.540;8.364;2024-02-23T13:34:50;1.57;;;1.07;;
12519;SDS011;6325;49.540;8.364;2024-02-23T13:37:18;1.80;;;1.08;;
12519;SDS011;6325;49.540;8.364;2024-02-23T13:39:44;1.48;;;1.00;;
12519;SDS011;6325;49.540;8.364;2024-02-23T13:42:11;1.10;;;1.00;;
12519;SDS011;6325;49.540;8.364;2024-02-23T13:44:38;1.58;;;0.80;;
12519;SDS011;6325;49.540;8.364;2024-02-23T13:47:05;1.80;;;1.00;;
12519;SDS011;6325;49.540;8.364;2024-02-23T13:49:32;1.83;;;0.82;;
12519;SDS011;6325;49.540;8.364;2024-02-23T13:52:00;1.63;;;0.87;;
12519;SDS011;6325;49.540;8.364;2024-02-23T13:54:27;1.70;;;0.90;;
12519;SDS011;6325;49.540;8.364;2024-02-23T13:56:54;1.10;;;0.80;;
12519;SDS011;6325;49.540;8.364;2024-02-23T13:59:20;0.90;;;0.80;;
12519;SDS011;6325;49.540;8.364;2024-02-23T14:01:47;0.73;;;0.73;;
12519;SDS011;6325;49.540;8.364;2024-02-23T14:04:14;1.25;;;0.80;;
12519;SDS011;6325;49.540;8.364;2024-02-23T14:06:42;1.50;;;0.88;;
12519;SDS011;6325;49.540;8.364;2024-02-23T14:09:10;1.40;;;0.70;;
12519;SDS011;6325;49.540;8.364;2024-02-23T14:11:37;1.00;;;0.80;;
12519;SDS011;6325;49.540;8.364;2024-02-23T14:14:05;1.08;;;0.82;;
12519;SDS011;6325;49.540;8.364;2024-02-23T14:16:32;0.80;;;0.80;;
12519;SDS011;6325;49.540;8.364;2024-02-23T14:18:59;0.90;;;0.73;;
12519;SDS011;6325;49.540;8.364;2024-02-23T14:21:26;1.55;;;0.95;;
12519;SDS011;6325;49.540;8.364;2024-02-23T14:23:53;1.60;;;0.90;;
12519;SDS011;6325;49.540;8.364;2024-02-23T14:26:21;1.17;;;0.77;;
12519;SDS011;6325;49.540;8.364;2024-02-23T14:28:48;2.15;;;0.90;;
12519;SDS011;6325;49.540;8.364;2024-02-23T14:31:16;1.42;;;0.73;;
12519;SDS011;6325;49.540;8.364;2024-02-23T14:33:42;1.38;;;0.98;;
12519;SDS011;6325;49.540;8.364;2024-02-23T14:36:09;1.40;;;0.80;;
12519;SDS011;6325;49.540;8.364;2024-02-23T14:38:36;1.30;;;0.90;;
12519;SDS011;6325;49.540;8.364;2024-02-23T14:41:03;1.15;;;0.80;;
12519;SDS011;6325;49.540;8.364;2024-02-23T14:43:35;0.85;;;0.70;;
12519;SDS011;6325;49.540;8.364;2024-02-23T14:46:02;0.60;;;0.60;;
12519;SDS011;6325;49.540;8.364;2024-02-23T14:48:30;1.20;;;0.70;;
12519;SDS011;6325;49.540;8.364;2024-02-23T14:50:57;0.90;;;0.70;;
12519;SDS011;6325;49.540;8.364;2024-02-23T14:53:23;1.17;;;0.75;;
12519;SDS011;6325;49.540;8.364;2024-02-23T14:55:51;1.20;;;0.80;;
12519;SDS011;6325;49.540;8.364;2024-02-23T14:58:18;1.58;;;0.80;;
12519;SDS011;6325;49.540;8.364;2024-02-23T15:00:46;1.55;;;1.00;;
12519;SDS011;6325;49.540;8.364;2024-02-23T15:03:13;1.05;;;0.70;;